Time;durP1;ratioP1;P1;durP2;ratioP2;P2;SDS_P1;SDS_P2;PMS_P1;PMS_P2;Temp;Humidity;BMP_temperature;BMP_pressure;BME280_temperature;BME280_humidity;BME280_pressure;Samples;Min_cycle;Max_cycle;Signal;HPM_P1;HPM_P2
2023/05/27 00:02:14;;;;;;;8.98;6.55;;;16.20;99.90;;;;;;4899099;29;20398;-78
2023/05/27 00:04:56;;;;;;;14.68;6.15;;;16.20;99.90;;;;;;4884266;29;20064;-79
2023/05/27 00:07:36;;;;;;;11.00;6.18;;;16.10;99.90;;;;;;4869990;29;20049;-80
2023/05/27 00:10:16;;;;;;;8.05;5.78;;;16.10;99.90;;;;;;4873140;29;20121;-80
2023/05/27 00:13:14;;;;;;;11.65;6.60;;;16.20;99.90;;;;;;5179958;23;20496;-80
2023/05/27 00:16:24;;;;;;;11.38;6.25;;;16.10;99.90;;;;;;4878035;29;20421;-78
2023/05/27 00:22:11;;;;;;;14.40;6.85;;;15.90;99.90;;;;;;4825138;29;20058;-78
2023/05/27 00:24:52;;;;;;;12.88;7.15;;;15.90;99.90;;;;;;4829547;29;20055;-81
2023/05/27 00:27:24;;;;;;;9.77;6.85;;;15.80;99.90;;;;;;4839650;29;20062;-80
2023/05/27 00:29:52;;;;;;;22.10;8.07;;;15.70;99.90;;;;;;4824415;29;20058;-79
2023/05/27 00:32:20;;;;;;;13.23;7.78;;;15.80;99.90;;;;;;4828271;29;20062;-80
2023/05/27 00:38:43;;;;;;;13.25;7.88;;;15.80;99.90;;;;;;4802352;29;20107;-79
2023/05/27 00:41:12;;;;;;;14.40;7.50;;;15.70;99.90;;;;;;4799505;29;20100;-80
2023/05/27 00:43:59;;;;;;;15.82;7.40;;;15.70;99.90;;;;;;4794254;29;20059;-80
2023/05/27 00:47:09;;;;;;;11.55;6.75;;;15.60;99.90;;;;;;4801520;29;20100;-80
2023/05/27 00:49:39;;;;;;;12.02;7.20;;;15.50;99.90;;;;;;4821684;29;20054;-80
2023/05/27 00:52:33;;;;;;;;;;;;;;;;;;;;;
2023/05/27 00:55:24;;;;;;;10.52;6.25;;;15.60;99.90;;;;;;4803076;29;20069;-80
2023/05/27 01:01:38;;;;;;;9.57;6.60;;;15.50;99.90;;;;;;4833171;29;20057;-80
2023/05/27 01:04:47;;;;;;;9.63;6.53;;;15.40;99.90;;;;;;4844672;29;20061;-82
2023/05/27 01:07:47;;;;;;;10.02;7.20;;;15.20;99.90;;;;;;4848995;29;20507;-81
2023/05/27 01:10:56;;;;;;;9.95;6.20;;;15.20;99.90;;;;;;4860590;29;20057;-81
2023/05/27 01:13:46;;;;;;;14.52;6.45;;;15.30;99.90;;;;;;4846674;29;20062;-79
2023/05/27 01:16:48;;;;;;;12.82;6.22;;;15.10;99.90;;;;;;4846007;29;20089;-79
2023/05/27 01:20:01;;;;;;;10.35;6.28;;;15.10;99.90;;;;;;4823809;29;20145;-81
2023/05/27 01:22:44;;;;;;;13.45;6.65;;;15.20;99.90;;;;;;4846938;29;20053;-82
2023/05/27 01:25:25;;;;;;;9.43;6.07;;;15.20;99.90;;;;;;4830449;29;20054;-82
2023/05/27 01:28:06;;;;;;;10.50;6.10;;;15.20;99.90;;;;;;4838958;29;20114;-80
2023/05/27 01:30:36;;;;;;;7.78;5.60;;;15.30;99.90;;;;;;4870146;23;20049;-80
2023/05/27 01:33:19;;;;;;;8.02;5.90;;;15.10;99.90;;;;;;4852973;29;20065;-80
2023/05/27 01:36:05;;;;;;;13.38;6.65;;;15.00;99.90;;;;;;4863406;29;20065;-81
2023/05/27 01:41:33;;;;;;;8.43;6.05;;;15.10;99.90;;;;;;4942729;29;20043;-80
2023/05/27 01:44:06;;;;;;;9.45;5.80;;;14.90;99.90;;;;;;4915936;29;20048;-80
2023/05/27 01:47:08;;;;;;;10.82;5.93;;;14.90;99.90;;;;;;4920447;29;20056;-81
2023/05/27 01:49:45;;;;;;;11.55;6.38;;;15.00;99.90;;;;;;4930937;29;20531;-80
2023/05/27 01:52:18;;;;;;;13.73;6.10;;;14.80;99.90;;;;;;4921385;29;20057;-79
2023/05/27 01:54:55;;;;;;;11.48;6.50;;;14.70;99.90;;;;;;4913210;29;20051;-82
2023/05/27 01:57:25;;;;;;;12.55;6.65;;;14.90;99.90;;;;;;4926627;29;20060;-81
2023/05/27 02:00:04;;;;;;;10.27;6.60;;;14.80;99.90;;;;;;4926701;29;20487;-79
2023/05/27 02:06:23;;;;;;;9.18;6.47;;;15.10;99.90;;;;;;4931044;29;20054;-78
2023/05/27 02:08:51;;;;;;;8.82;6.38;;;15.00;99.90;;;;;;4908269;29;20080;-79
2023/05/27 02:14:38;;;;;;;9.38;6.45;;;15.10;99.90;;;;;;4944112;29;20462;-79
2023/05/27 02:17:06;;;;;;;10.32;6.55;;;15.30;99.90;;;;;;4907501;29;20064;-78
2023/05/27 02:19:33;;;;;;;8.88;6.00;;;15.10;99.90;;;;;;4904766;29;20497;-77
2023/05/27 02:22:01;;;;;;;11.75;6.43;;;15.10;99.90;;;;;;4921783;29;20507;-78
2023/05/27 02:24:29;;;;;;;10.38;6.53;;;15.20;99.90;;;;;;4937063;29;20044;-78
2023/05/27 02:26:56;;;;;;;9.63;7.10;;;15.20;99.90;;;;;;4903764;29;20434;-78
2023/05/27 02:29:37;;;;;;;10.90;6.30;;;15.20;99.90;;;;;;4923176;29;20048;-79
2023/05/27 02:32:44;;;;;;;13.25;7.22;;;15.10;99.90;;;;;;5357677;23;20063;-77
2023/05/27 02:35:16;;;;;;;12.15;7.32;;;15.10;99.90;;;;;;4919435;29;20052;-81
2023/05/27 02:37:57;;;;;;;14.30;7.25;;;15.00;99.90;;;;;;4891938;29;20043;-79
2023/05/27 02:40:26;;;;;;;14.75;7.22;;;15.10;99.90;;;;;;4901997;29;20048;-79
2023/05/27 02:42:58;;;;;;;13.25;7.35;;;15.10;99.90;;;;;;4901894;29;20072;-79
2023/05/27 02:45:28;;;;;;;10.88;7.05;;;15.20;99.90;;;;;;4880310;29;20134;-78
2023/05/27 02:47:59;;;;;;;9.50;7.38;;;15.20;99.90;;;;;;4888139;29;20096;-78
2023/05/27 02:50:27;;;;;;;;;;;14.90;99.90;;;;;;4922551;29;20515;-78
2023/05/27 02:52:55;;;;;;;13.40;7.60;;;14.80;99.90;;;;;;4892053;29;19926;-78
2023/05/27 02:55:22;;;;;;;9.73;7.10;;;14.90;99.90;;;;;;4909209;29;20056;-78
2023/05/27 02:57:51;;;;;;;12.95;7.22;;;14.80;99.90;;;;;;4900680;29;20039;-79
2023/05/27 03:00:18;;;;;;;10.48;7.07;;;14.50;99.90;;;;;;4905347;29;20052;-79
2023/05/27 03:02:47;;;;;;;13.98;7.13;;;14.60;99.90;;;;;;4901597;29;20051;-79
2023/05/27 03:05:15;;;;;;;9.93;6.68;;;14.50;99.90;;;;;;4890625;29;20116;-79
2023/05/27 03:07:45;;;;;;;10.35;6.70;;;14.30;99.90;;;;;;4913636;29;20485;-78
2023/05/27 03:10:13;;;;;;;10.52;6.97;;;14.30;99.90;;;;;;4883639;29;20070;-80
2023/05/27 03:13:06;;;;;;;;;;;;;;;;;;;;;
2023/05/27 03:16:22;;;;;;;10.65;6.97;;;14.70;99.90;;;;;;4902755;29;20043;-80
2023/05/27 03:19:00;;;;;;;14.60;7.40;;;14.80;99.90;;;;;;4895565;29;20116;-79
2023/05/27 03:21:38;;;;;;;12.85;7.43;;;14.70;99.90;;;;;;4888485;29;20071;-79
2023/05/27 03:24:19;;;;;;;13.48;7.80;;;14.70;99.90;;;;;;4896520;29;20058;-79
2023/05/27 03:26:47;;;;;;;10.65;7.45;;;14.80;99.90;;;;;;4906787;29;20089;-79
2023/05/27 03:29:15;;;;;;;12.57;7.88;;;14.80;99.90;;;;;;4904988;29;20057;-79
2023/05/27 03:31:45;;;;;;;10.95;7.55;;;14.90;99.90;;;;;;4892728;29;20048;-79
2023/05/27 03:34:12;;;;;;;15.38;8.00;;;14.90;99.90;;;;;;4918748;29;20049;-78
2023/05/27 03:40:16;;;;;;;10.82;8.23;;;15.00;99.90;;;;;;4912249;29;20126;-79
2023/05/27 03:42:43;;;;;;;11.95;8.25;;;15.00;99.90;;;;;;4910843;29;20489;-79
2023/05/27 03:45:24;;;;;;;15.07;7.75;;;15.00;99.90;;;;;;4900461;29;20053;-79
2023/05/27 03:47:54;;;;;;;13.65;9.00;;;15.00;99.90;;;;;;4902614;29;20084;-81
2023/05/27 03:50:22;;;;;;;12.27;7.90;;;14.80;99.90;;;;;;4909713;29;20063;-82
2023/05/27 03:52:51;;;;;;;11.23;8.03;;;14.80;99.90;;;;;;4901718;29;20501;-79
2023/05/27 03:55:22;;;;;;;13.68;8.30;;;14.80;99.90;;;;;;4909065;29;20135;-80
2023/05/27 03:58:06;;;;;;;;;;;;;;;;;;;;;
2023/05/27 04:00:57;;;;;;;13.90;8.55;;;14.80;99.90;;;;;;4902270;29;20130;-78
2023/05/27 04:07:00;;;;;;;12.20;8.05;;;14.70;99.90;;;;;;4904325;29;20059;-80
2023/05/27 04:09:44;;;;;;;14.80;8.77;;;14.90;99.90;;;;;;4905194;29;20053;-81
2023/05/27 04:12:25;;;;;;;13.88;8.60;;;14.90;99.90;;;;;;4887970;29;20079;-81
2023/05/27 04:15:08;;;;;;;17.80;8.25;;;14.80;99.90;;;;;;4902614;29;20052;-80
2023/05/27 04:17:49;;;;;;;14.85;7.43;;;14.90;99.90;;;;;;4912598;29;20056;-80
2023/05/27 04:25:24;;;;;;;15.32;8.02;;;14.90;99.90;;;;;;4888059;29;20047;-82
2023/05/27 04:27:52;;;;;;;12.65;7.40;;;15.10;99.90;;;;;;4878188;29;20053;-80
2023/05/27 04:30:34;;;;;;;12.23;7.80;;;15.10;99.90;;;;;;4895344;29;20424;-79
2023/05/27 04:33:16;;;;;;;12.95;7.82;;;15.20;99.90;;;;;;4887920;29;20515;-79
2023/05/27 04:35:47;;;;;;;18.10;9.15;;;14.90;99.90;;;;;;4888464;29;20425;-78
2023/05/27 04:38:20;;;;;;;11.18;7.95;;;15.10;99.90;;;;;;4909027;29;20048;-79
2023/05/27 04:41:02;;;;;;;12.10;8.02;;;15.30;99.90;;;;;;5029363;23;20055;-77
2023/05/27 04:43:31;;;;;;;13.88;8.15;;;15.40;99.90;;;;;;4900853;29;20057;-80
2023/05/27 04:45:59;;;;;;;12.02;8.10;;;15.50;99.90;;;;;;4896287;29;20458;-78
2023/05/27 04:48:27;;;;;;;14.05;8.90;;;15.70;99.90;;;;;;4910284;29;20057;-79
2023/05/27 04:51:08;;;;;;;12.60;8.02;;;15.60;99.90;;;;;;4956685;29;20043;-79
2023/05/27 04:53:49;;;;;;;12.88;8.07;;;15.80;99.90;;;;;;4942024;29;20066;-80
2023/05/27 05:02:47;;;;;;;12.68;8.75;;;15.80;99.90;;;;;;4883810;29;20461;-78
2023/05/27 05:05:16;;;;;;;13.80;7.93;;;15.90;99.90;;;;;;4906866;29;20472;-78
2023/05/27 05:07:44;;;;;;;15.90;8.88;;;16.00;99.90;;;;;;4911795;29;20043;-78
2023/05/27 05:10:26;;;;;;;12.80;7.85;;;16.00;99.90;;;;;;4909308;29;20040;-80
2023/05/27 05:14:05;;;;;;;14.25;8.55;;;16.00;99.90;;;;;;5253224;23;20059;-81
2023/05/27 05:20:16;;;;;;;13.38;8.73;;;16.20;99.90;;;;;;4922053;29;20111;-78
2023/05/27 05:22:48;;;;;;;12.73;7.82;;;16.10;99.90;;;;;;4904644;29;20092;-79
2023/05/27 05:25:16;;;;;;;17.33;8.48;;;16.10;99.90;;;;;;4908264;29;20056;-79
2023/05/27 05:27:46;;;;;;;15.07;7.78;;;16.10;99.90;;;;;;4904043;29;20071;-79
2023/05/27 05:30:30;;;;;;;13.45;7.97;;;16.10;99.90;;;;;;4915951;29;20098;-79
2023/05/27 05:33:05;;;;;;;15.43;8.48;;;16.30;99.90;;;;;;4896177;29;20059;-79
2023/05/27 05:35:33;;;;;;;17.40;9.73;;;16.40;99.90;;;;;;4907566;29;20056;-81
2023/05/27 05:38:14;;;;;;;15.15;9.23;;;16.30;99.90;;;;;;4900281;29;20048;-79
2023/05/27 05:40:56;;;;;;;17.08;8.82;;;16.40;99.90;;;;;;4911563;29;20052;-80
2023/05/27 05:43:26;;;;;;;14.65;8.10;;;16.40;99.90;;;;;;4899979;29;20116;-81
2023/05/27 05:46:07;;;;;;;14.57;9.13;;;16.60;99.90;;;;;;4926168;29;20076;-79
2023/05/27 05:48:36;;;;;;;16.73;8.63;;;16.70;99.90;;;;;;4902749;29;20060;-80
2023/05/27 05:51:17;;;;;;;12.65;8.30;;;16.70;99.90;;;;;;4906992;29;20059;-80
2023/05/27 05:53:58;;;;;;;16.85;8.57;;;16.90;99.90;;;;;;4908851;29;20071;-79
2023/05/27 05:56:40;;;;;;;13.00;8.45;;;17.00;99.90;;;;;;4901321;29;20052;-79
2023/05/27 05:59:12;;;;;;;13.38;8.65;;;17.10;99.90;;;;;;4911282;29;20112;-80
2023/05/27 06:01:45;;;;;;;13.38;8.25;;;17.20;99.90;;;;;;4904498;29;20044;-78
2023/05/27 06:08:40;;;;;;;19.88;9.18;;;17.30;99.90;;;;;;4874219;29;20515;-80
2023/05/27 06:11:41;;;;;;;16.50;8.57;;;17.40;99.90;;;;;;4900557;29;20053;-81
2023/05/27 06:14:11;;;;;;;13.02;8.63;;;17.60;99.90;;;;;;4897939;29;20064;-79
2023/05/27 06:26:53;;;;;;;15.57;8.95;;;17.90;99.90;;;;;;4900138;29;20438;-81
2023/05/27 06:32:19;;;;;;;15.07;8.40;;;17.80;99.90;;;;;;4958640;23;20496;-80
2023/05/27 06:42:13;;;;;;;12.75;7.97;;;18.10;99.90;;;;;;4855280;29;20050;-80
2023/05/27 06:44:43;;;;;;;14.70;8.10;;;18.20;99.90;;;;;;4865015;29;20511;-79
2023/05/27 06:54:45;;;;;;;15.43;8.48;;;18.50;99.90;;;;;;4813731;29;20043;-82
2023/05/27 06:57:18;;;;;;;16.92;9.77;;;18.50;99.90;;;;;;5367980;23;20063;-81
2023/05/27 07:00:28;;;;;;;;;;;;;;;;;;;;;
2023/05/27 07:03:30;;;;;;;17.58;8.85;;;18.60;99.90;;;;;;4921012;29;20121;-80
2023/05/27 07:06:14;;;;;;;14.75;8.75;;;18.50;99.90;;;;;;4896740;29;20146;-79
2023/05/27 07:08:55;;;;;;;21.77;9.38;;;18.60;99.90;;;;;;4898011;29;20076;-80
2023/05/27 07:11:49;;;;;;;16.95;9.57;;;18.60;99.90;;;;;;4902662;29;20057;-82
2023/05/27 07:15:00;;;;;;;18.02;9.88;;;18.80;99.90;;;;;;4893291;29;20108;-78
2023/05/27 07:17:29;;;;;;;19.05;8.60;;;19.00;99.90;;;;;;4880014;29;20057;-80
2023/05/27 07:20:11;;;;;;;15.77;8.68;;;18.80;99.90;;;;;;4883061;29;20552;-80
2023/05/27 07:22:42;;;;;;;12.23;7.28;;;19.20;99.90;;;;;;4892977;29;20052;-79
2023/05/27 07:25:11;;;;;;;14.57;8.25;;;19.50;99.90;;;;;;4925709;29;20072;-78
2023/05/27 07:27:53;;;;;;;17.10;8.82;;;19.70;99.90;;;;;;4927795;29;20111;-80
2023/05/27 07:30:35;;;;;;;13.48;8.85;;;19.60;99.90;;;;;;4904780;29;20060;-82
2023/05/27 07:34:21;;;;;;;14.15;8.48;;;19.70;99.90;;;;;;4857050;29;20068;-82
2023/05/27 07:39:55;;;;;;;12.77;8.25;;;19.70;99.90;;;;;;4932428;23;19919;-81
2023/05/27 07:42:36;;;;;;;13.85;8.48;;;19.80;99.90;;;;;;4898040;29;20484;-78
2023/05/27 07:45:09;;;;;;;51.72;35.92;;;19.50;99.90;;;;;;4898765;29;20154;-77
2023/05/27 07:47:37;;;;;;;66.93;37.17;;;19.80;99.90;;;;;;4921600;29;20471;-77
2023/05/27 07:50:18;;;;;;;44.00;30.20;;;19.60;99.90;;;;;;4909001;29;20492;-76
2023/05/27 07:53:02;;;;;;;106.10;64.65;;;19.80;99.90;;;;;;4904702;29;20059;-77
2023/05/27 07:55:42;;;;;;;57.83;40.22;;;19.90;99.90;;;;;;4902222;29;20056;-77
2023/05/27 07:58:51;;;;;;;79.93;52.88;;;20.00;99.90;;;;;;4894535;29;20048;-79
2023/05/27 08:01:20;;;;;;;210.40;139.07;;;20.30;99.90;;;;;;4912849;29;20059;-78
2023/05/27 08:03:47;;;;;;;119.43;77.22;;;20.40;99.90;;;;;;4907569;29;20321;-80
2023/05/27 08:06:17;;;;;;;86.00;60.80;;;20.50;99.90;;;;;;4879194;29;20488;-79
2023/05/27 08:09:12;;;;;;;44.50;31.50;;;20.60;99.90;;;;;;4895229;29;20051;-75
2023/05/27 08:11:50;;;;;;;81.05;52.05;;;20.60;99.90;;;;;;4998115;23;20143;-80
2023/05/27 08:14:27;;;;;;;29.10;19.20;;;20.70;99.90;;;;;;4892043;29;20064;-76
2023/05/27 08:20:16;;;;;;;13.80;8.02;;;20.70;99.90;;;;;;4907898;27;20053;-83
2023/05/27 08:23:01;;;;;;;10.10;6.82;;;20.40;99.90;;;;;;4898367;29;20056;-80
2023/05/27 08:26:08;;;;;;;11.90;7.10;;;20.30;99.90;;;;;;4982980;23;20063;-77
2023/05/27 08:34:10;;;;;;;11.20;6.82;;;20.50;99.90;;;;;;4863578;29;20064;-83
2023/05/27 08:43:24;;;;;;;9.38;6.18;;;20.10;99.90;;;;;;5151192;23;20048;-82
2023/05/27 08:45:54;;;;;;;11.77;6.78;;;20.10;99.90;;;;;;5345012;23;20040;-80
2023/05/27 09:01:00;;;;;;;13.15;7.50;;;20.60;99.90;;;;;;5941867;23;20032;31
2023/05/27 09:09:59;;;;;;;35.95;22.30;;;21.00;99.90;;;;;;4811216;23;20112;-78
2023/05/27 09:12:35;;;;;;;18.50;12.88;;;20.40;99.90;;;;;;4912385;23;20048;-76
2023/05/27 09:15:33;;;;;;;;;;;;;;;;;;;;;
2023/05/27 09:18:58;;;;;;;12.45;8.40;;;20.90;99.90;;;;;;4904866;29;20064;-76
2023/05/27 09:21:42;;;;;;;9.05;6.50;;;21.50;99.90;;;;;;4897791;23;20088;-73
2023/05/27 09:24:11;;;;;;;11.80;6.85;;;21.70;99.90;;;;;;4913890;29;20060;-81
2023/05/27 09:27:13;;;;;;;10.77;6.47;;;21.50;99.90;;;;;;4914396;29;20068;-76
2023/05/27 09:30:27;;;;;;;12.05;6.75;;;21.20;99.90;;;;;;4896955;29;20758;-76
2023/05/27 09:33:04;;;;;;;12.45;6.65;;;21.50;99.90;;;;;;4909072;29;20049;-79
2023/05/27 09:35:39;;;;;;;9.20;6.35;;;21.20;99.90;;;;;;4892933;29;20116;-76
2023/05/27 09:38:08;;;;;;;9.55;6.15;;;21.40;99.90;;;;;;4903837;29;20056;-79
2023/05/27 09:40:37;;;;;;;12.60;6.80;;;21.40;99.90;;;;;;4923232;29;20077;-77
2023/05/27 09:43:06;;;;;;;8.65;6.05;;;21.60;99.90;;;;;;4918014;29;20052;-75
2023/05/27 09:45:34;;;;;;;9.80;5.97;;;21.40;99.90;;;;;;4910589;29;20056;-78
2023/05/27 09:48:03;;;;;;;8.23;5.78;;;21.10;99.90;;;;;;4920819;29;20059;-76
2023/05/27 09:51:21;;;;;;;;;;;;;;;;;;;;;
2023/05/27 09:54:18;;;;;;;41.10;25.63;;;21.20;99.90;;;;;;4871502;29;20041;-81
2023/05/27 09:56:50;;;;;;;18.15;11.52;;;21.70;99.90;;;;;;4868947;29;20042;-79
2023/05/27 09:59:18;;;;;;;23.65;15.95;;;21.90;99.90;;;;;;4880706;29;20075;-79
2023/05/27 10:01:53;;;;;;;24.75;15.68;;;21.80;99.90;;;;;;4871839;29;20046;-75
2023/05/27 10:05:24;;;;;;;;;;;;;;;;;;;;;
2023/05/27 10:09:04;;;;;;;8.35;5.72;;;22.10;99.90;;;;;;4936991;23;20055;-74
2023/05/27 10:14:55;;;;;;;12.82;7.13;;;22.40;99.60;;;;;;4911100;29;20052;-76
2023/05/27 10:17:52;;;;;;;8.13;5.78;;;22.90;99.10;;;;;;4904650;29;20082;-76
2023/05/27 10:20:44;;;;;;;;;;;23.20;98.20;;;;;;4900926;29;20128;-74
2023/05/27 10:24:01;;;;;;;8.82;5.50;;;23.30;97.10;;;;;;4895819;29;19923;-74
2023/05/27 10:26:42;;;;;;;12.13;5.60;;;23.30;96.30;;;;;;4883750;29;20057;-77
2023/05/27 10:29:17;;;;;;;10.82;5.78;;;23.60;96.50;;;;;;4923638;29;20141;-76
2023/05/27 10:31:49;;;;;;;10.57;5.68;;;23.70;95.60;;;;;;4902744;29;20095;-81
2023/05/27 10:34:20;;;;;;;7.32;5.00;;;23.80;96.40;;;;;;4911454;29;20060;-78
2023/05/27 10:37:40;;;;;;;12.90;5.57;;;23.40;98.10;;;;;;4988300;23;20112;-78
2023/05/27 10:40:35;;;;;;;17.05;10.13;;;22.90;97.80;;;;;;4866835;29;20117;-78
2023/05/27 10:43:08;;;;;;;13.43;8.90;;;23.50;97.50;;;;;;4866001;29;20506;-76
2023/05/27 10:46:23;;;;;;;14.23;6.70;;;23.80;96.30;;;;;;4859946;29;20057;-78
2023/05/27 10:49:23;;;;;;;8.75;5.30;;;24.10;96.20;;;;;;4862248;29;20102;-78
2023/05/27 10:56:34;;;;;;;8.02;5.20;;;23.70;94.80;;;;;;5191981;23;20413;-78
2023/05/27 10:59:21;;;;;;;10.05;5.57;;;23.40;95.00;;;;;;5169424;23;20061;-75
2023/05/27 11:01:53;;;;;;;10.35;7.13;;;23.20;95.50;;;;;;4899499;29;20082;-76
2023/05/27 11:04:44;;;;;;;8.90;6.25;;;23.50;95.20;;;;;;4920568;29;20055;-81
2023/05/27 11:11:48;;;;;;;10.30;5.60;;;23.90;94.60;;;;;;5318709;23;20060;-78
2023/05/27 11:22:36;;;;;;;12.75;5.50;;;24.20;93.50;;;;;;4872933;29;20086;-78
2023/05/27 11:25:44;;;;;;;7.43;5.57;;;23.90;93.50;;;;;;4891738;23;20084;-77
2023/05/27 11:31:19;;;;;;;8.38;5.43;;;23.70;93.50;;;;;;5164233;23;20497;31
2023/05/27 11:33:55;;;;;;;10.15;5.75;;;23.70;93.70;;;;;;4843203;29;20046;-77
2023/05/27 11:37:04;;;;;;;9.18;6.10;;;23.70;93.70;;;;;;4812860;29;20060;-75
2023/05/27 11:39:34;;;;;;;9.35;5.60;;;23.90;94.40;;;;;;4811027;29;20190;-77
2023/05/27 11:42:06;;;;;;;14.13;6.28;;;24.00;94.30;;;;;;4827559;29;20057;-77
2023/05/27 11:44:49;;;;;;;8.80;5.82;;;23.90;93.80;;;;;;4835283;29;20144;-76
2023/05/27 11:48:02;;;;;;;10.38;5.72;;;24.30;93.50;;;;;;4840273;29;20054;-77
2023/05/27 11:50:30;;;;;;;13.77;6.15;;;24.40;93.40;;;;;;4834808;29;20054;-78
2023/05/27 11:53:12;;;;;;;11.40;6.60;;;24.80;93.30;;;;;;4846377;29;20053;-75
2023/05/27 11:56:32;;;;;;;;;;;;;;;;;;;;;
2023/05/27 11:59:15;;;;;;;8.60;6.00;;;25.40;91.30;;;;;;4843628;29;20106;-74
2023/05/27 12:01:46;;;;;;;14.55;6.70;;;25.20;90.60;;;;;;4856243;29;20054;-78
2023/05/27 12:04:45;;;;;;;18.55;7.95;;;25.00;91.40;;;;;;4872732;29;20402;-76
2023/05/27 12:07:50;;;;;;;13.52;7.05;;;25.10;92.00;;;;;;4849373;23;20044;-77
2023/05/27 12:10:33;;;;;;;9.38;6.07;;;24.80;91.20;;;;;;4877723;29;20075;-80
2023/05/27 12:13:39;;;;;;;11.10;6.18;;;24.70;91.00;;;;;;4906699;29;20056;-76
2023/05/27 12:16:16;;;;;;;12.73;7.07;;;24.60;91.20;;;;;;4885458;29;20052;-78
2023/05/27 12:18:48;;;;;;;9.93;6.40;;;24.80;91.80;;;;;;4889986;29;20067;-81
2023/05/27 12:21:16;;;;;;;7.50;5.20;;;25.00;90.40;;;;;;4910687;29;20060;-77
2023/05/27 12:23:55;;;;;;;22.02;8.38;;;25.30;90.80;;;;;;4900350;29;20080;-78
2023/05/27 12:30:20;;;;;;;10.65;5.28;;;25.90;87.20;;;;;;4926101;29;20416;-78
2023/05/27 12:32:51;;;;;;;18.52;11.30;;;25.90;85.30;;;;;;4914319;29;20461;-74
2023/05/27 12:35:49;;;;;;;53.38;36.45;;;26.20;84.60;;;;;;4892669;29;20057;-74
2023/05/27 12:38:33;;;;;;;19.95;15.02;;;26.10;85.10;;;;;;4885406;29;20060;-75
2023/05/27 12:41:01;;;;;;;15.15;10.45;;;26.00;84.20;;;;;;4907999;29;20060;-76
2023/05/27 12:44:21;;;;;;;13.10;8.13;;;25.80;85.90;;;;;;4885337;29;20055;-76
2023/05/27 12:47:13;;;;;;;50.80;31.92;;;25.70;85.60;;;;;;4893361;29;20155;-76
2023/05/27 12:49:45;;;;;;;46.55;32.78;;;25.60;85.30;;;;;;4884360;29;20454;-80
2023/05/27 12:56:22;;;;;;;8.10;5.30;;;25.70;83.20;;;;;;4953571;23;20079;-78
2023/05/27 12:59:16;;;;;;;10.40;6.22;;;25.90;82.30;;;;;;4911697;29;20040;-76
2023/05/27 13:01:47;;;;;;;8.05;4.72;;;25.90;81.80;;;;;;4912137;29;20043;-74
2023/05/27 13:04:17;;;;;;;9.10;5.65;;;25.60;80.10;;;;;;4893111;29;20497;-77
2023/05/27 13:06:52;;;;;;;25.77;18.55;;;25.20;82.20;;;;;;4904382;29;20139;-78
2023/05/27 13:09:46;;;;;;;20.55;14.80;;;24.90;82.40;;;;;;4884699;29;20048;-74
2023/05/27 13:12:33;;;;;;;8.73;5.57;;;24.60;83.00;;;;;;4893702;29;20064;-74
2023/05/27 13:15:06;;;;;;;9.35;4.80;;;24.20;84.00;;;;;;4910132;29;20052;-76
2023/05/27 13:17:38;;;;;;;7.28;4.60;;;24.10;85.90;;;;;;4911037;29;20052;-76
2023/05/27 13:20:23;;;;;;;8.02;4.68;;;23.90;86.50;;;;;;4897439;29;20140;-76
2023/05/27 13:23:22;;;;;;;10.20;4.13;;;23.90;86.00;;;;;;4901755;29;20049;-75
2023/05/27 13:26:00;;;;;;;8.43;4.32;;;23.90;83.80;;;;;;4884527;29;20112;-77
2023/05/27 13:28:41;;;;;;;8.45;4.57;;;23.80;85.00;;;;;;4902170;29;20056;-76
2023/05/27 13:31:14;;;;;;;8.48;4.60;;;23.70;88.10;;;;;;4904121;29;20053;-75
2023/05/27 13:34:04;;;;;;;7.53;5.15;;;23.70;90.10;;;;;;4896789;29;20056;-76
2023/05/27 13:36:44;;;;;;;8.25;4.50;;;24.20;89.70;;;;;;4915139;29;20051;-75
2023/05/27 13:39:51;;;;;;;8.02;4.68;;;24.80;87.20;;;;;;4875421;29;20063;-75
2023/05/27 13:42:33;;;;;;;7.93;5.18;;;25.20;86.80;;;;;;4905973;29;20056;-76
2023/05/27 13:48:34;;;;;;;7.30;4.53;;;25.10;87.30;;;;;;4837290;29;20070;-75
2023/05/27 13:51:22;;;;;;;10.32;4.88;;;24.90;86.80;;;;;;4839432;29;20081;-74
2023/05/27 13:54:11;;;;;;;7.88;4.80;;;24.60;87.80;;;;;;4838229;29;20054;-76
2023/05/27 13:56:38;;;;;;;10.30;5.20;;;24.20;87.70;;;;;;4831065;29;20074;-76
2023/05/27 13:59:17;;;;;;;8.13;4.75;;;24.10;86.70;;;;;;4830017;29;20061;-74
2023/05/27 14:02:07;;;;;;;10.63;4.97;;;24.00;88.60;;;;;;4813850;29;20046;-74
2023/05/27 14:05:18;;;;;;;7.57;4.35;;;23.90;88.30;;;;;;4837006;29;20126;-73
2023/05/27 14:08:10;;;;;;;11.00;4.28;;;23.90;86.40;;;;;;4823490;29;20403;-75
2023/05/27 14:10:50;;;;;;;6.95;4.38;;;23.80;88.30;;;;;;4843762;29;20113;-79
2023/05/27 14:13:21;;;;;;;8.15;5.30;;;23.90;87.40;;;;;;4844220;29;20054;-78
2023/05/27 14:16:07;;;;;;;8.18;4.10;;;24.00;87.30;;;;;;4847685;29;20075;-78
2023/05/27 14:18:36;;;;;;;20.05;15.32;;;24.30;85.80;;;;;;4834275;29;20129;-77
2023/05/27 14:21:13;;;;;;;10.40;7.60;;;25.30;83.80;;;;;;4844037;29;20548;-76
2023/05/27 14:24:33;;;;;;;15.82;11.75;;;26.50;80.40;;;;;;4842773;29;20071;-78
2023/05/27 14:30:56;;;;;;;8.07;5.38;;;28.10;76.40;;;;;;4924917;23;20068;-76
2023/05/27 14:33:56;;;;;;;7.57;4.65;;;31.60;69.50;;;;;;4882421;29;20064;-77
2023/05/27 14:36:59;;;;;;;8.38;5.75;;;33.40;63.10;;;;;;4901007;29;20059;-79
2023/05/27 14:39:37;;;;;;;7.55;4.97;;;34.30;60.40;;;;;;4910773;29;20049;-75
2023/05/27 14:43:17;;;;;;;9.23;5.03;;;35.20;57.00;;;;;;4877446;29;20437;-76
2023/05/27 14:45:59;;;;;;;9.85;4.70;;;34.70;57.30;;;;;;4855016;29;20517;-75
2023/05/27 14:48:27;;;;;;;9.10;4.53;;;33.80;57.40;;;;;;4879123;29;20466;-79
2023/05/27 14:54:26;;;;;;;10.15;4.90;;;32.40;59.90;;;;;;5061257;23;20052;-82
2023/05/27 15:00:33;;;;;;;8.23;5.13;;;31.50;60.10;;;;;;4972408;23;20501;-77
2023/05/27 15:07:24;;;;;;;7.00;4.80;;;32.50;59.20;;;;;;4884348;29;20041;-76
2023/05/27 15:09:52;;;;;;;8.80;4.63;;;31.10;62.20;;;;;;4901069;29;20473;-80
2023/05/27 15:12:21;;;;;;;7.47;4.22;;;29.20;64.70;;;;;;4898714;29;20052;-78
2023/05/27 15:15:04;;;;;;;;;;;;;;;;;;;;;
2023/05/27 15:18:39;;;;;;;7.82;4.50;;;29.80;64.70;;;;;;4886164;29;20085;-76
2023/05/27 15:21:21;;;;;;;8.82;4.68;;;27.20;68.10;;;;;;4901524;29;20067;-77
2023/05/27 15:23:50;;;;;;;9.05;5.15;;;27.60;70.10;;;;;;4896144;29;20076;-77
2023/05/27 15:26:29;;;;;;;10.55;5.75;;;26.50;72.00;;;;;;4881410;23;20045;-79
2023/05/27 15:28:57;;;;;;;9.32;5.32;;;25.80;73.70;;;;;;4922594;29;20055;-80
2023/05/27 15:31:25;;;;;;;9.13;5.75;;;25.10;75.20;;;;;;4932648;29;20396;-76
2023/05/27 15:34:05;;;;;;;8.13;5.30;;;24.90;76.50;;;;;;4929383;23;20056;-79
2023/05/27 15:36:34;;;;;;;14.40;6.28;;;24.40;78.10;;;;;;4908174;29;20051;-77
2023/05/27 15:39:02;;;;;;;12.27;5.80;;;24.50;78.60;;;;;;4924224;29;20052;-78
2023/05/27 15:41:36;;;;;;;9.27;5.65;;;24.20;79.80;;;;;;4925655;29;20056;-78
2023/05/27 15:44:09;;;;;;;24.85;18.65;;;24.00;79.90;;;;;;4906975;29;20388;-79
2023/05/27 15:46:44;;;;;;;28.10;20.35;;;24.10;80.70;;;;;;4915236;29;20060;-77
2023/05/27 15:52:46;;;;;;;42.20;30.05;;;24.00;80.90;;;;;;4943113;23;20115;-76
2023/05/27 15:56:07;;;;;;;9.23;5.82;;;24.30;80.10;;;;;;4892264;29;20067;-78
2023/05/27 16:03:04;;;;;;;7.03;4.13;;;23.10;81.00;;;;;;4910831;29;20036;-75
2023/05/27 16:06:09;;;;;;;5.13;3.28;;;23.00;79.50;;;;;;4892868;29;20047;-80
2023/05/27 16:09:41;;;;;;;8.38;3.90;;;23.20;79.50;;;;;;4904214;29;20064;-77
2023/05/27 16:12:10;;;;;;;6.72;3.80;;;23.20;78.20;;;;;;4908372;29;20044;-79
2023/05/27 16:15:47;;;;;;;6.47;3.65;;;23.10;78.90;;;;;;4848929;29;20191;-81
2023/05/27 16:18:18;;;;;;;7.13;4.25;;;22.90;81.40;;;;;;4862752;29;20045;-77
2023/05/27 16:21:01;;;;;;;7.93;4.00;;;22.90;81.80;;;;;;4862176;29;20553;-80
2023/05/27 16:24:05;;;;;;;6.93;4.75;;;23.00;82.40;;;;;;4858796;29;20053;-78
2023/05/27 16:27:22;;;;;;;7.85;5.10;;;23.00;84.00;;;;;;4738340;30;20053;-79
2023/05/27 16:30:57;;;;;;;6.97;4.53;;;22.50;88.70;;;;;;4740186;30;20053;-78
2023/05/27 16:34:48;;;;;;;9.10;5.80;;;22.30;87.90;;;;;;4724656;30;20049;-76
2023/05/27 16:37:17;;;;;;;8.60;5.78;;;22.20;90.00;;;;;;4737933;30;20072;-78
2023/05/27 16:40:15;;;;;;;;;;;;;;;;;;;;;
2023/05/27 16:43:40;;;;;;;7.32;4.35;;;21.80;90.40;;;;;;4767305;30;20516;-81
2023/05/27 17:00:30;;;;;;;8.27;4.50;;;21.30;90.80;;;;;;5400692;23;20067;-80
2023/05/27 17:10:46;;;;;;;5.70;4.13;;;21.20;91.20;;;;;;5340279;23;20057;-79
2023/05/27 17:17:02;;;;;;;5.82;3.80;;;21.00;91.30;;;;;;4921741;29;20049;-79
2023/05/27 17:19:59;;;;;;;9.25;4.53;;;21.00;91.50;;;;;;4908867;29;20071;-78
2023/05/27 17:31:01;;;;;;;11.05;4.72;;;20.90;91.70;;;;;;4866200;29;20065;-78
2023/05/27 17:38:39;;;;;;;7.57;4.78;;;20.70;92.00;;;;;;4742122;30;20042;-79
2023/05/27 17:45:44;;;;;;;48.60;32.50;;;20.90;91.50;;;;;;4927641;29;20056;-81